createdAt,value
2018-07-25T00:00:22.613Z,17.6
2018-07-25T00:01:12.995Z,17.6
2018-07-25T00:02:02.779Z,17.7
2018-07-25T00:02:52.538Z,17.7
2018-07-25T00:03:43.139Z,17.6
2018-07-25T00:04:33.211Z,17.6
2018-07-25T00:05:23.292Z,17.7
2018-07-25T00:06:13.452Z,17.7
2018-07-25T00:07:03.412Z,17.7
2018-07-25T00:07:53.458Z,17.7
2018-07-25T00:08:43.549Z,17.6
2018-07-25T00:09:33.614Z,17.7
2018-07-25T00:10:23.681Z,17.7
2018-07-25T00:11:13.184Z,17.7
2018-07-25T00:12:03.814Z,17.7
2018-07-25T00:12:53.858Z,17.7
2018-07-25T00:13:43.941Z,17.7
2018-07-25T00:14:33.993Z,17.6
2018-07-25T00:15:23.512Z,17.6
2018-07-25T00:16:13.855Z,17.7
2018-07-25T00:17:03.908Z,17.6
2018-07-25T00:17:53.702Z,17.6
2018-07-25T00:18:44.307Z,17.6
2018-07-25T00:19:34.137Z,17.6
2018-07-25T00:20:24.202Z,17.6
2018-07-25T00:21:14.517Z,17.6
2018-07-25T00:22:04.594Z,17.6
2018-07-25T00:22:54.661Z,17.6
2018-07-25T00:23:44.412Z,17.6
2018-07-25T00:24:34.484Z,17.6
2018-07-25T00:25:24.828Z,17.6
2018-07-25T00:26:14.892Z,17.6
2018-07-25T00:27:04.674Z,17.6
2018-07-25T00:27:55.074Z,17.6
2018-07-25T00:28:45.082Z,17.6
2018-07-25T00:29:34.891Z,17.6
2018-07-25T00:30:24.924Z,17.6
2018-07-25T00:31:15.283Z,17.6
2018-07-25T00:32:05.342Z,17.6
2018-07-25T00:32:55.405Z,17.6
2018-07-25T00:33:45.467Z,17.6
2018-07-25T00:34:35.528Z,17.6
2018-07-25T00:35:25.299Z,17.6
2018-07-25T00:36:15.572Z,17.6
2018-07-25T00:37:05.731Z,17.5
2018-07-25T00:37:55.517Z,17.5
2018-07-25T00:38:45.854Z,17.5
2018-07-25T00:39:35.930Z,17.5
2018-07-25T00:40:25.990Z,17.5
2018-07-25T00:41:15.751Z,17.5
2018-07-25T00:42:06.133Z,17.5
2018-07-25T00:42:55.887Z,17.5
2018-07-25T00:43:45.957Z,17.5
2018-07-25T00:44:36.362Z,17.5
2018-07-25T00:45:26.376Z,17.5
2018-07-25T00:46:16.425Z,17.5
2018-07-25T00:47:06.213Z,17.5
2018-07-25T00:47:56.585Z,17.5
2018-07-25T00:48:46.638Z,17.5
2018-07-25T00:49:36.718Z,17.5
2018-07-25T00:50:26.203Z,17.5
2018-07-25T00:51:16.813Z,17.5
2018-07-25T00:52:06.623Z,17.5
2018-07-25T00:52:56.976Z,17.5
2018-07-25T00:53:46.737Z,17.5
2018-07-25T00:54:37.089Z,17.5
2018-07-25T00:55:27.350Z,17.5
2018-07-25T00:56:16.938Z,17.5
2018-07-25T21:28:37.125Z,16.8
2018-07-25T21:29:27.044Z,16.9
2018-07-25T21:30:17.127Z,16.8
2018-07-25T21:31:07.047Z,16.8
2018-07-25T21:31:57.303Z,16.9
2018-07-25T21:32:46.755Z,16.8
2018-07-25T21:33:37.135Z,16.8
2018-07-25T21:34:27.148Z,16.9
2018-07-25T21:35:17.250Z,16.8
2018-07-25T21:36:07.822Z,16.8
2018-07-25T21:36:57.682Z,16.8
2018-07-25T21:37:47.445Z,16.8
2018-07-25T21:38:37.207Z,16.8
2018-07-25T21:39:27.558Z,16.8
2018-07-25T21:40:17.884Z,16.8
2018-07-25T21:41:07.400Z,16.8
2018-07-25T21:41:57.736Z,16.8
2018-07-25T21:42:48.074Z,16.8
2018-07-25T21:43:38.154Z,16.8
2018-07-25T21:44:28.226Z,16.8
2018-07-25T21:45:18.291Z,16.8
2018-07-25T21:46:08.343Z,16.8
2018-07-25T21:46:58.435Z,16.8
2018-07-25T21:47:48.189Z,16.8
2018-07-25T21:48:38.283Z,16.8
2018-07-25T21:49:28.622Z,16.8
2018-07-25T21:50:18.648Z,16.8
2018-07-25T21:51:08.934Z,16.8
2018-07-25T21:51:58.793Z,16.8
2018-07-25T21:52:48.848Z,16.8
2018-07-25T21:53:38.928Z,16.8
2018-07-25T21:54:28.731Z,16.8
2018-07-25T21:55:19.033Z,16.8
2018-07-25T21:56:08.832Z,16.8
2018-07-25T21:56:59.163Z,16.8
2018-07-25T21:57:49.246Z,16.8
2018-07-25T21:58:39.313Z,16.7
2018-07-25T21:59:28.819Z,16.8
2018-07-25T22:00:19.434Z,16.7
2018-07-25T22:01:09.195Z,16.7
2018-07-25T22:01:59.540Z,16.7
2018-07-25T22:02:49.343Z,16.7
2018-07-25T22:03:39.406Z,16.7
2018-07-25T22:04:29.498Z,16.7
2018-07-25T22:05:19.811Z,16.7
2018-07-25T22:06:09.860Z,16.7
2018-07-25T22:06:59.917Z,16.6
2018-07-25T22:07:49.505Z,16.6
2018-07-25T22:08:39.598Z,16.6
2018-07-25T22:09:29.637Z,16.6
2018-07-25T22:10:19.720Z,16.6
2018-07-25T22:11:09.770Z,16.6
2018-07-25T22:11:59.822Z,16.6
2018-07-25T22:12:49.941Z,16.6
2018-07-25T22:13:40.453Z,16.6
2018-07-25T22:14:30.330Z,16.6
2018-07-25T22:15:20.302Z,16.6
2018-07-25T22:16:10.635Z,16.6
2018-07-25T22:17:00.142Z,16.6
2018-07-25T22:17:50.770Z,16.6
2018-07-25T22:18:40.568Z,16.5
2018-07-25T22:19:30.940Z,16.6
2018-07-25T22:20:20.985Z,16.6
2018-07-25T22:21:10.738Z,16.6
2018-07-25T22:22:00.814Z,16.6
2018-07-25T22:22:51.159Z,16.5
2018-07-25T22:23:41.226Z,16.5
2018-07-25T22:24:31.003Z,16.5
2018-07-25T22:25:21.338Z,16.5
2018-07-25T22:26:11.396Z,16.5
2018-07-25T22:27:01.181Z,16.5
2018-07-25T22:27:50.994Z,16.5
2018-07-25T22:28:41.051Z,16.5
2018-07-25T22:29:31.405Z,16.5
2018-07-25T22:30:21.533Z,16.5
2018-07-25T22:31:10.926Z,16.5
2018-07-25T22:32:01.577Z,16.5
2018-07-25T22:32:51.653Z,16.5
2018-07-25T22:33:41.694Z,16.5
2018-07-25T22:34:31.214Z,16.4
2018-07-25T22:35:21.540Z,16.5
2018-07-25T22:36:11.428Z,16.4
2018-07-25T22:37:01.678Z,16.4
2018-07-25T22:37:51.894Z,16.4
2018-07-25T22:38:41.816Z,16.4
2018-07-25T22:39:32.181Z,16.4
2018-07-25T22:40:21.659Z,16.4
2018-07-25T22:41:12.297Z,16.4
2018-07-25T22:42:01.656Z,16.4
2018-07-25T22:42:52.154Z,16.4
2018-07-25T22:43:41.897Z,16.4
2018-07-25T22:44:32.266Z,16.4
2018-07-25T22:45:22.630Z,16.4
2018-07-25T22:46:12.701Z,16.4
2018-07-25T22:47:03.052Z,16.4
2018-07-25T22:47:52.527Z,16.4
2018-07-25T22:48:42.301Z,16.4
2018-07-25T22:49:32.935Z,16.4
2018-07-25T22:50:22.725Z,16.4
2018-07-25T22:51:12.792Z,16.4
2018-07-25T22:52:03.150Z,16.3
2018-07-25T22:52:53.192Z,16.3
2018-07-25T22:53:43.150Z,16.3
2018-07-25T22:54:33.617Z,16.3
2018-07-25T22:55:23.162Z,16.3
2018-07-25T22:56:12.965Z,16.3
2018-07-25T22:57:02.935Z,16.3
2018-07-25T22:57:53.559Z,16.3
2018-07-25T22:58:43.917Z,16.3
2018-07-25T22:59:33.421Z,16.3
2018-07-25T23:00:23.823Z,16.3
2018-07-25T23:01:13.821Z,16.3
2018-07-25T23:02:04.170Z,16.3
2018-07-25T23:02:54.233Z,16.3
2018-07-25T23:03:44.283Z,16.3
2018-07-25T23:04:34.375Z,16.3
2018-07-25T23:05:24.434Z,16.2
2018-07-25T23:06:13.919Z,16.3
2018-07-25T23:07:04.253Z,16.2
2018-07-25T23:07:54.314Z,16.2
2018-07-25T23:08:44.662Z,16.2
2018-07-25T23:09:34.731Z,16.2
2018-07-25T23:10:24.796Z,16.2
2018-07-25T23:11:14.868Z,16.2
2018-07-25T23:12:04.653Z,16.2
2018-07-25T23:12:54.712Z,16.2
2018-07-25T23:13:44.777Z,16.1
2018-07-25T23:14:35.297Z,16.1
2018-07-25T23:15:24.948Z,16.1
2018-07-25T23:16:14.960Z,16.1
2018-07-25T23:17:05.035Z,16.1
2018-07-25T23:17:55.395Z,16.1
2018-07-25T23:18:45.153Z,16.1
2018-07-25T23:19:35.511Z,16.1
2018-07-25T23:20:25.580Z,16.1
2018-07-25T23:21:15.633Z,16.1
2018-07-25T23:22:05.702Z,16.1
2018-07-25T23:22:55.479Z,16.1
2018-07-25T23:23:45.824Z,16.1
2018-07-25T23:24:35.611Z,16.1
2018-07-25T23:25:25.997Z,16.1
2018-07-25T23:26:16.037Z,16.1
2018-07-25T23:27:05.540Z,16.1
2018-07-25T23:27:56.137Z,16.1
2018-07-25T23:28:46.204Z,16.1
2018-07-25T23:29:36.287Z,16.1
2018-07-25T23:30:26.380Z,16.1
2018-07-25T23:31:16.170Z,16.1
2018-07-25T23:32:06.196Z,16.1
2018-07-25T23:32:56.566Z,16.1
2018-07-25T23:33:46.320Z,16.1
2018-07-25T23:34:36.375Z,16.1
2018-07-25T23:35:26.736Z,16.1
2018-07-25T23:36:16.797Z,16.1
2018-07-25T23:37:07.000Z,16.1
2018-07-25T23:37:56.660Z,16.1
2018-07-25T23:38:46.694Z,16.1
2018-07-25T23:39:36.496Z,16.1
2018-07-25T23:40:27.109Z,16.1
2018-07-25T23:41:16.921Z,16.1
2018-07-25T23:42:07.243Z,16.1
2018-07-25T23:42:57.319Z,16.1
2018-07-25T23:43:47.355Z,16.1
2018-07-25T23:44:36.866Z,16.1
2018-07-25T23:45:27.508Z,16.1
2018-07-25T23:46:17.265Z,16.1
2018-07-25T23:47:07.064Z,16.1
2018-07-25T23:47:57.660Z,16.1
2018-07-25T23:48:47.743Z,16.1
2018-07-25T23:49:37.801Z,16.1
2018-07-25T23:50:27.597Z,16.1
2018-07-25T23:51:17.987Z,16.1
2018-07-25T23:52:07.982Z,16.1
2018-07-25T23:52:58.083Z,16.1
2018-07-25T23:53:48.126Z,16.1
2018-07-25T23:54:38.190Z,16.1
2018-07-25T23:55:27.984Z,16.1
2018-07-25T23:56:18.060Z,16.1
2018-07-25T23:57:08.417Z,16.1
2018-07-25T23:57:58.458Z,16.1
2018-07-25T23:58:48.505Z,16.1
2018-07-25T23:59:38.605Z,16.1
